Time;durP1;ratioP1;P1;durP2;ratioP2;P2;SDS_P1;SDS_P2;PMS_P1;PMS_P2;Temp;Humidity;BMP_temperature;BMP_pressure;BME280_temperature;BME280_humidity;BME280_pressure;Samples;Min_cycle;Max_cycle;Signal;HPM_P1;HPM_P2
2021/04/15 00:00:39;;;;;;;12.60;5.70;;;;;;;2.69;60.80;101444.47;1693545;84;21130;-74
2021/04/15 00:03:12;;;;;;;13.70;5.40;;;;;;;2.69;60.87;101443.15;1691953;83;21619;-74
2021/04/15 00:05:38;;;;;;;16.70;6.25;;;;;;;2.66;60.93;101444.20;1679765;84;22014;-74
2021/04/15 00:08:09;;;;;;;11.30;5.40;;;;;;;2.65;60.98;101436.38;1680846;84;21201;-74
2021/04/15 00:10:37;;;;;;;;;;;;;;;2.64;61.05;101437.34;1701393;84;22288;-74
2021/04/15 00:13:07;;;;;;;13.38;5.30;;;;;;;2.62;61.11;101431.30;1693095;83;20287;-74
2021/04/15 00:15:33;;;;;;;13.40;6.05;;;;;;;2.61;61.17;101434.86;1723317;83;21082;-74
2021/04/15 00:18:00;;;;;;;17.80;7.08;;;;;;;2.59;61.24;101431.49;1723591;83;22658;-73
2021/04/15 01:17:46;;;;;;;15.18;5.22;;;;;;;2.06;62.87;101414.97;1807422;77;23334;-74
2021/04/15 01:21:07;;;;;;;10.95;4.15;;;;;;;1.98;62.93;101412.80;1757401;81;21056;-74
2021/04/15 01:24:06;;;;;;;10.13;4.72;;;;;;;1.98;63.00;101418.05;1757040;81;21572;-74
2021/04/15 01:27:25;;;;;;;11.50;4.57;;;;;;;1.96;63.11;101414.22;1759405;80;21132;-74
2021/04/15 01:30:20;;;;;;;12.15;4.97;;;;;;;1.95;63.21;101411.20;1757145;81;21143;-74
2021/04/15 01:33:19;;;;;;;11.45;5.05;;;;;;;1.95;63.30;101414.30;1757159;81;21140;-74
2021/04/15 01:36:05;;;;;;;8.80;4.05;;;;;;;1.95;63.40;101414.30;1757237;80;21190;-75
2021/04/15 01:38:40;;;;;;;10.18;4.65;;;;;;;1.94;63.45;101410.81;1727243;81;22032;-74
2021/04/15 01:41:14;;;;;;;11.40;4.42;;;;;;;1.94;63.55;101415.22;1755745;80;21584;-74
2021/04/15 01:44:07;;;;;;;10.98;4.33;;;;;;;1.93;63.62;101410.92;1787425;80;21092;-75
2021/04/15 01:46:34;;;;;;;17.82;5.00;;;;;;;1.93;63.67;101408.29;1771180;80;21224;-74
2021/04/15 01:49:01;;;;;;;12.33;4.50;;;;;;;1.92;63.75;101410.53;1727669;81;21107;-74
2021/04/15 01:51:43;;;;;;;11.20;4.20;;;;;;;1.90;63.82;101409.79;1680391;81;21279;-75
2021/04/15 01:54:39;;;;;;;11.43;4.67;;;;;;;1.92;63.89;101403.49;1811026;77;22705;-74
2021/04/15 01:57:14;;;;;;;11.08;3.75;;;;;;;1.86;63.96;101405.17;1765445;79;21194;-75
2021/04/15 02:00:02;;;;;;;9.60;3.52;;;;;;;1.86;64.03;101406.95;1796958;79;21264;-74
2021/04/15 02:02:37;;;;;;;10.13;4.40;;;;;;;1.85;64.11;101406.56;1767132;79;21164;-74
2021/04/15 02:05:15;;;;;;;7.10;3.30;;;;;;;1.85;64.18;101401.31;1762906;80;21231;-74
2021/04/15 02:07:45;;;;;;;10.43;3.20;;;;;;;1.84;64.25;101405.72;1763807;81;21571;-75
2021/04/15 02:10:12;;;;;;;;;;;;;;;1.83;64.31;101401.88;1782731;79;21124;-75
2021/04/15 02:12:41;;;;;;;9.45;3.55;;;;;;;1.82;64.38;101408.06;1789691;80;21155;-74
2021/04/15 02:15:14;;;;;;;9.85;3.60;;;;;;;1.80;64.47;101406.83;1757687;81;25308;-74
2021/04/15 02:17:40;;;;;;;8.08;4.22;;;;;;;1.81;64.50;101406.36;1757236;81;21135;-74
2021/04/15 02:20:19;;;;;;;10.35;4.05;;;;;;;1.78;64.57;101403.45;1757568;81;21547;-74
2021/04/15 02:23:09;;;;;;;6.95;3.75;;;;;;;1.78;64.64;101407.40;1757584;81;22331;-74
2021/04/15 02:26:00;;;;;;;10.40;3.50;;;;;;;1.79;64.69;101400.36;1757461;81;21159;-75
2021/04/15 02:28:49;;;;;;;10.55;3.50;;;;;;;1.78;64.77;101403.91;1757515;81;21251;-75
2021/04/15 02:31:21;;;;;;;9.70;3.98;;;;;;;1.78;64.84;101406.55;1757423;81;21152;-74
2021/04/15 02:34:01;;;;;;;7.75;3.55;;;;;;;1.75;64.91;101400.16;1782213;80;21104;-74
2021/04/15 02:36:44;;;;;;;10.15;3.85;;;;;;;1.75;64.96;101402.32;1788584;80;22456;-73
2021/04/15 02:39:15;;;;;;;12.95;4.12;;;;;;;1.75;65.05;101401.47;1788600;80;21163;-74
2021/04/15 02:41:42;;;;;;;10.82;4.50;;;;;;;1.77;65.12;101407.47;1787168;80;21179;-74
2021/04/15 02:44:19;;;;;;;8.40;4.00;;;;;;;1.75;65.17;101402.78;1788774;80;21144;-74
2021/04/15 02:46:46;;;;;;;6.90;3.62;;;;;;;1.74;65.26;101403.71;1787965;80;21164;-74
2021/04/15 02:49:14;;;;;;;8.28;4.10;;;;;;;1.71;65.33;101396.00;1780355;80;21140;-74
2021/04/15 02:51:44;;;;;;;8.55;3.80;;;;;;;1.69;65.39;101394.77;1752750;80;21512;-74
2021/04/15 02:54:17;;;;;;;7.12;3.58;;;;;;;1.69;65.49;101398.70;1728350;81;21564;-74
2021/04/15 02:56:58;;;;;;;7.08;3.70;;;;;;;1.70;65.56;101396.94;1680331;84;21175;-74
2021/04/15 02:59:38;;;;;;;6.33;3.27;;;;;;;1.71;65.64;101396.00;1721809;83;21592;-74
2021/04/15 03:02:09;;;;;;;7.50;3.08;;;;;;;1.74;65.73;101399.77;1708687;84;21235;-74
2021/04/15 03:04:37;;;;;;;5.50;2.83;;;;;;;1.76;65.81;101401.86;1728279;82;22624;-74
2021/04/15 03:07:03;;;;;;;6.58;3.00;;;;;;;1.78;65.88;101402.60;1743817;81;21144;-74
2021/04/15 03:09:34;;;;;;;5.30;2.58;;;;;;;1.76;65.96;101396.59;1733503;82;21136;-74
2021/04/15 03:12:18;;;;;;;5.05;2.50;;;;;;;1.74;66.02;101399.30;1754412;81;21148;-74
2021/04/15 03:14:55;;;;;;;10.25;2.85;;;;;;;1.73;66.12;101402.01;1733694;82;21609;-74
2021/04/15 03:17:22;;;;;;;6.35;3.22;;;;;;;1.71;66.19;101399.48;1733457;82;21226;-74
2021/04/15 03:19:53;;;;;;;8.45;3.85;;;;;;;1.69;66.28;101400.02;1754436;81;21164;-74
2021/04/15 03:22:24;;;;;;;5.25;2.92;;;;;;;1.71;66.34;101401.27;1710918;82;21161;-74
2021/04/15 03:24:53;;;;;;;5.78;3.05;;;;;;;1.68;66.45;101400.13;1724561;83;21151;-74
2021/04/15 03:27:51;;;;;;;6.70;3.52;;;;;;;1.69;66.54;101404.47;1645755;85;21100;-74
2021/04/15 03:30:43;;;;;;;18.35;5.58;;;;;;;1.67;66.60;101399.28;1724292;83;21604;-74
2021/04/15 03:33:14;;;;;;;9.83;3.92;;;;;;;1.68;66.69;101402.76;1675224;85;21160;-74
2021/04/15 03:36:14;;;;;;;14.20;3.70;;;;;;;1.68;66.76;101402.76;1656093;85;21165;-74
2021/04/15 03:38:49;;;;;;;7.17;3.20;;;;;;;1.66;66.83;101401.52;1675127;85;28453;-74
2021/04/15 03:41:23;;;;;;;11.70;4.03;;;;;;;1.66;66.93;101407.24;1676080;83;21699;-75
2021/04/15 03:44:06;;;;;;;7.00;3.62;;;;;;;1.64;66.98;101405.18;1732802;82;21274;-75
2021/04/15 03:46:53;;;;;;;6.85;3.10;;;;;;;1.64;67.06;101401.23;1703778;84;21398;-75
2021/04/15 03:49:25;;;;;;;8.28;3.60;;;;;;;1.65;67.14;101402.94;1703652;82;21139;-75
2021/04/15 03:51:55;;;;;;;11.50;3.47;;;;;;;1.65;67.23;101402.94;1697267;84;21147;-76
2021/04/15 03:54:23;;;;;;;6.85;3.17;;;;;;;1.63;67.32;101404.80;1698397;83;21245;-75
2021/04/15 03:56:55;;;;;;;6.42;2.83;;;;;;;1.63;67.42;101407.42;1757021;81;21157;-76
2021/04/15 03:59:39;;;;;;;11.25;4.17;;;;;;;1.60;67.53;101402.34;1756884;81;21180;-76
2021/04/15 04:02:20;;;;;;;8.60;3.77;;;;;;;1.58;67.65;101404.23;1757743;80;21103;-76
2021/04/15 04:05:08;;;;;;;7.72;3.62;;;;;;;1.58;67.73;101408.17;1756992;81;21122;-76
2021/04/15 04:07:45;;;;;;;7.72;3.50;;;;;;;1.54;67.86;101400.08;1756717;81;21127;-75
2021/04/15 04:10:25;;;;;;;9.18;4.33;;;;;;;1.55;67.99;101409.66;1756702;81;21431;-76
2021/04/15 04:12:55;;;;;;;;;;;;;;;1.54;68.11;101402.70;1758412;81;21155;-76
2021/04/15 04:15:30;;;;;;;7.17;3.35;;;;;;;1.55;68.20;101410.98;1756752;81;27172;-76
2021/04/15 04:18:20;;;;;;;7.85;3.55;;;;;;;1.53;68.33;101407.11;1757127;81;21115;-75
2021/04/15 04:20:46;;;;;;;9.33;3.85;;;;;;;1.51;68.45;101408.50;1757126;81;21640;-75
2021/04/15 04:23:33;;;;;;;7.42;4.17;;;;;;;1.47;68.59;101407.01;1760452;80;21195;-75
2021/04/15 04:26:29;;;;;;;10.32;4.58;;;;;;;1.46;68.70;101413.66;1788153;80;21167;-76
2021/04/15 04:29:54;;;;;;;9.18;4.72;;;;;;;1.42;68.86;101415.61;1788373;80;21608;-76
2021/04/15 04:32:22;;;;;;;12.68;5.95;;;;;;;1.42;68.98;101422.64;1788502;80;21187;-76
2021/04/15 04:34:58;;;;;;;14.07;6.53;;;;;;;1.39;69.16;101422.81;1787782;80;21167;-75
2021/04/15 04:37:37;;;;;;;10.20;5.10;;;;;;;1.38;69.26;101421.96;1788019;80;21609;-75
2021/04/15 04:40:20;;;;;;;11.18;5.47;;;;;;;1.37;69.39;101428.14;1788263;80;21510;-75
2021/04/15 04:43:00;;;;;;;11.75;5.90;;;;;;;1.36;69.53;101427.78;1760259;80;21163;-75
2021/04/15 04:45:26;;;;;;;12.60;6.28;;;;;;;1.36;69.69;101429.10;1788347;80;21104;-75
2021/04/15 04:48:06;;;;;;;11.80;6.17;;;;;;;1.38;69.81;101424.59;1764410;80;21099;-75
2021/04/15 04:50:46;;;;;;;9.35;5.47;;;;;;;1.40;69.95;101431.09;1757361;81;21275;-75
2021/04/15 04:53:16;;;;;;;14.95;5.10;;;;;;;1.39;70.08;101430.23;1756267;81;21239;-75
2021/04/15 04:55:46;;;;;;;9.15;4.78;;;;;;;1.42;70.21;101419.55;1734167;82;21135;-75
2021/04/15 04:58:18;;;;;;;14.03;6.10;;;;;;;1.43;70.32;101422.56;1734306;81;21519;-75
2021/04/15 05:00:51;;;;;;;16.20;7.75;;;;;;;1.44;70.44;101416.84;1760810;81;21149;-75
2021/04/15 05:03:20;;;;;;;15.68;6.70;;;;;;;1.44;70.60;101410.28;1761041;81;21330;-75
2021/04/15 05:05:46;;;;;;;11.78;5.97;;;;;;;1.46;70.74;101409.25;1759924;81;21122;-75
2021/04/15 05:08:23;;;;;;;10.30;5.58;;;;;;;1.49;70.85;101410.84;1760973;81;21130;-76
2021/04/15 05:10:53;;;;;;;10.82;5.03;;;;;;;1.49;71.01;101416.95;1760944;81;21504;-76
2021/04/15 05:13:28;;;;;;;9.70;4.60;;;;;;;1.48;71.16;101417.88;1768116;81;21140;-76
2021/04/15 05:15:54;;;;;;;15.10;7.90;;;;;;;1.47;71.27;101416.20;1754347;81;22166;-76
2021/04/15 05:18:22;;;;;;;8.68;4.15;;;;;;;1.50;71.43;101420.44;1756887;81;21155;-76
2021/04/15 05:20:50;;;;;;;10.03;5.35;;;;;;;1.52;71.52;101421.18;1754577;81;21133;-76
2021/04/15 05:23:26;;;;;;;12.78;4.80;;;;;;;1.52;71.67;101421.18;1752193;81;21593;-76
2021/04/15 05:26:10;;;;;;;13.75;4.78;;;;;;;1.54;71.78;101423.73;1753425;81;21460;-75
2021/04/15 05:28:36;;;;;;;13.32;5.80;;;;;;;1.55;71.89;101422.81;1757232;81;21982;-75
2021/04/15 05:31:05;;;;;;;11.48;5.75;;;;;;;1.49;72.04;101416.95;1753973;81;21148;-75
2021/04/15 05:33:32;;;;;;;8.93;4.10;;;;;;;1.49;72.15;101418.27;1756674;81;21164;-75
2021/04/15 05:36:12;;;;;;;9.68;4.92;;;;;;;1.50;72.25;101419.12;1757049;81;21131;-76
2021/04/15 05:38:48;;;;;;;9.75;4.47;;;;;;;1.45;72.37;101410.17;1757111;81;21589;-75
2021/04/15 05:41:29;;;;;;;12.40;5.50;;;;;;;1.43;72.49;101410.73;1754480;81;22108;-76
2021/04/15 05:43:59;;;;;;;17.98;6.55;;;;;;;1.41;72.61;101416.53;1719363;81;21164;-76
2021/04/15 05:46:41;;;;;;;;;;;;;;;1.43;72.73;101415.99;1706791;82;21250;-75
2021/04/15 05:49:11;;;;;;;13.03;5.17;;;;;;;1.43;72.83;101413.83;1704284;84;20346;-76
2021/04/15 05:51:47;;;;;;;;;;;;;;;1.38;72.93;101410.59;1731640;81;21156;-75
2021/04/15 05:54:14;;;;;;;19.02;7.50;;;;;;;1.36;73.03;101413.33;1730117;82;21199;-75
2021/04/15 05:56:59;;;;;;;16.62;7.80;;;;;;;1.38;73.13;101411.45;1768003;81;21133;-75
2021/04/15 06:00:08;;;;;;;8.33;5.58;;;;;;;1.41;73.22;101408.64;1768037;81;21137;-76
2021/04/15 06:02:43;;;;;;;19.52;10.15;;;;;;;1.36;73.33;101413.33;1768007;81;21188;-76
2021/04/15 06:05:22;;;;;;;20.20;9.03;;;;;;;1.33;73.44;101418.77;1766260;81;21566;-76
2021/04/15 06:07:49;;;;;;;14.07;6.83;;;;;;;1.32;73.54;101419.69;1766118;81;21296;-76
2021/04/15 06:10:20;;;;;;;24.52;11.05;;;;;;;1.32;73.62;101414.44;1768039;81;21613;-76
2021/04/15 06:13:16;;;;;;;25.10;14.53;;;;;;;1.31;73.73;101414.05;1768004;81;21164;-76
2021/04/15 06:16:02;;;;;;;35.73;19.87;;;;;;;1.31;73.85;101412.73;1775637;79;21160;-77
2021/04/15 06:18:44;;;;;;;34.38;19.40;;;;;;;1.27;73.98;101416.45;1767957;81;21099;-77
2021/04/15 06:21:26;;;;;;;35.20;19.87;;;;;;;1.24;74.08;101407.90;1787813;79;21139;-77
2021/04/15 06:23:57;;;;;;;34.80;18.57;;;;;;;1.24;74.17;101407.44;1795452;79;21139;-77
2021/04/15 06:26:37;;;;;;;178.00;76.12;;;;;;;1.25;74.25;101409.14;1799722;79;21534;-77
2021/04/15 06:29:08;;;;;;;90.83;39.90;;;;;;;1.27;74.33;101409.89;1797449;79;21210;-77
2021/04/15 06:31:38;;;;;;;24.80;13.95;;;;;;;1.30;74.43;101397.89;1799711;79;21162;-77
2021/04/15 06:34:06;;;;;;;77.95;40.17;;;;;;;1.29;74.50;101407.19;1799512;79;21197;-78
2021/04/15 06:36:46;;;;;;;32.65;16.95;;;;;;;1.29;74.56;101398.84;1791135;79;21142;-78
2021/04/15 06:39:27;;;;;;;18.85;11.10;;;;;;;1.32;74.64;101390.78;1799683;79;21567;-77
2021/04/15 06:42:29;;;;;;;14.18;8.33;;;;;;;1.34;74.71;101387.59;1797761;79;21111;-77
2021/04/15 06:45:21;;;;;;;11.38;6.75;;;;;;;1.38;74.78;101391.74;1799640;79;21104;-77
2021/04/15 06:48:11;;;;;;;13.58;8.10;;;;;;;1.38;74.87;101390.43;1742390;81;22410;-83
2021/04/15 06:51:05;;;;;;;6.80;4.35;;;;;;;1.43;74.96;101384.92;1790846;79;25944;-79
2021/04/15 06:53:49;;;;;;;15.88;7.47;;;;;;;1.43;75.02;101377.89;1734017;81;21164;-81
2021/04/15 06:56:47;;;;;;;11.22;6.17;;;;;;;1.38;75.13;101379.92;1722820;83;21122;-79
2021/04/15 06:59:52;;;;;;;12.98;6.87;;;;;;;1.38;75.20;101369.41;1726831;81;21136;-79
2021/04/15 07:03:04;;;;;;;14.13;6.42;;;;;;;1.37;75.29;101375.59;1710016;83;22187;-80
2021/04/15 07:05:43;;;;;;;24.57;9.85;;;;;;;1.38;75.36;101368.55;1693543;83;21588;-79
2021/04/15 07:08:46;;;;;;;14.35;7.35;;;;;;;1.42;75.47;101373.56;1703699;83;21200;-79
2021/04/15 07:11:47;;;;;;;36.55;15.00;;;;;;;1.44;75.54;101379.56;1731542;81;21143;-80
2021/04/15 07:14:41;;;;;;;35.38;14.70;;;;;;;1.45;75.64;101373.38;1723691;82;21224;-79
2021/04/15 07:17:28;;;;;;;41.20;17.12;;;;;;;1.50;75.71;101374.44;1725974;82;21656;-79
2021/04/15 07:20:35;;;;;;;10.23;5.70;;;;;;;1.50;75.82;101370.03;1715207;82;21199;-79
2021/04/15 07:23:41;;;;;;;31.82;13.35;;;;;;;1.55;75.90;101372.87;1708156;82;21180;-79
2021/04/15 07:26:19;;;;;;;48.83;20.10;;;;;;;1.59;75.94;101366.01;1704740;82;21171;-79
2021/04/15 07:29:07;;;;;;;23.87;10.85;;;;;;;1.61;76.05;101365.47;1716331;82;21128;-79
2021/04/15 07:31:51;;;;;;;16.00;6.42;;;;;;;1.66;76.08;101366.49;1702227;82;22196;-79
2021/04/15 07:34:43;;;;;;;12.78;5.53;;;;;;;1.71;76.12;101367.08;1706353;82;21228;-79
2021/04/15 07:38:00;;;;;;;20.37;9.28;;;;;;;1.70;76.20;101369.33;1703792;82;21180;-80
2021/04/15 07:40:50;;;;;;;16.90;8.28;;;;;;;1.72;76.29;101367.47;1730503;82;21163;-80
2021/04/15 07:43:31;;;;;;;25.80;9.28;;;;;;;1.79;76.33;101363.55;1725479;82;21211;-80
2021/04/15 07:46:34;;;;;;;20.52;7.90;;;;;;;1.81;76.40;101365.61;1712127;82;22129;-80
2021/04/15 07:49:52;;;;;;;8.30;4.10;;;;;;;1.85;76.44;101363.17;1704469;82;21193;-80
2021/04/15 07:53:09;;;;;;;48.48;21.82;;;;;;;1.85;76.50;101364.49;1698631;82;21163;-80
2021/04/15 07:56:20;;;;;;;12.58;5.35;;;;;;;1.85;76.59;101361.39;1749263;80;22313;-78
2021/04/15 07:59:06;;;;;;;16.00;4.58;;;;;;;1.83;76.65;101357.99;1758133;80;21160;-80
2021/04/15 08:02:11;;;;;;;11.50;6.00;;;;;;;1.83;76.74;101358.48;1749049;80;21343;-80
2021/04/15 08:05:09;;;;;;;9.80;4.40;;;;;;;1.86;76.81;101360.94;1766952;80;21172;-81
2021/04/15 08:08:07;;;;;;;12.07;4.42;;;;;;;1.96;76.87;101359.45;1775035;80;21419;-80
2021/04/15 08:11:16;;;;;;;9.58;4.15;;;;;;;2.00;76.94;101363.59;1748574;80;21140;-80
2021/04/15 08:14:27;;;;;;;11.28;4.85;;;;;;;2.04;76.98;101366.42;1751415;80;21106;-81
2021/04/15 08:17:37;;;;;;;22.87;7.85;;;;;;;2.13;77.02;101360.59;1755269;80;21200;-80
2021/04/15 08:20:31;;;;;;;12.93;5.15;;;;;;;2.18;77.07;101361.14;1753869;80;21196;-80
2021/04/15 08:23:19;;;;;;;10.78;4.50;;;;;;;2.19;77.14;101357.58;1745675;80;21166;-77
2021/04/15 08:26:29;;;;;;;10.25;4.62;;;;;;;2.13;77.22;101361.91;1751746;80;21671;-78
2021/04/15 08:29:37;;;;;;;9.08;4.47;;;;;;;2.13;77.28;101359.27;1760333;80;21127;-78
2021/04/15 08:32:26;;;;;;;7.42;4.60;;;;;;;2.17;77.34;101359.47;1758251;80;21278;-78
2021/04/15 08:35:07;;;;;;;11.00;4.83;;;;;;;2.14;77.37;101350.92;1731218;80;21531;-77
2021/04/15 08:38:18;;;;;;;13.15;5.10;;;;;;;2.23;77.45;101348.56;1752599;80;21632;-78
2021/04/15 08:41:01;;;;;;;11.65;5.50;;;;;;;2.30;77.47;101352.52;1763341;79;21150;-79
2021/04/15 08:44:23;;;;;;;12.75;5.50;;;;;;;2.35;77.51;101351.78;1770299;80;21162;-78
2021/04/15 08:47:13;;;;;;;10.70;4.37;;;;;;;2.40;77.54;101354.95;1760984;80;21620;-78
2021/04/15 08:50:04;;;;;;;9.28;3.83;;;;;;;2.43;77.58;101353.45;1758222;79;21621;-77
2021/04/15 08:52:41;;;;;;;33.23;15.53;;;;;;;2.43;77.62;101349.50;1774972;80;21221;-78
2021/04/15 08:55:36;;;;;;;16.02;8.50;;;;;;;2.42;77.67;101340.39;1747445;79;21203;-77
2021/04/15 08:58:41;;;;;;;9.03;4.67;;;;;;;2.39;77.70;101340.09;1795615;79;21159;-77
2021/04/15 09:01:57;;;;;;;7.67;4.42;;;;;;;2.41;77.78;101339.55;1774419;79;21984;-77
2021/04/15 09:05:00;;;;;;;10.23;5.22;;;;;;;2.44;77.84;101334.09;1712954;82;21172;-77
2021/04/15 09:08:03;;;;;;;10.20;4.47;;;;;;;2.41;77.90;101339.55;1784248;79;21159;-77
2021/04/15 09:11:09;;;;;;;6.40;3.08;;;;;;;2.44;77.97;101337.19;1780138;79;21153;-78
2021/04/15 09:14:02;;;;;;;18.35;7.42;;;;;;;2.46;78.01;101330.06;1778701;79;21155;-77
2021/04/15 09:16:39;;;;;;;6.55;3.25;;;;;;;2.49;78.04;101325.45;1780403;80;21336;-77
2021/04/15 09:19:47;;;;;;;13.20;7.50;;;;;;;2.51;78.10;101324.87;1778925;79;21156;-78
2021/04/15 09:22:56;;;;;;;62.73;31.73;;;;;;;2.52;78.15;101321.77;1769836;79;21238;-77
2021/04/15 09:26:06;;;;;;;34.75;17.25;;;;;;;2.55;78.19;101319.41;1770032;79;21142;-77
2021/04/15 09:28:47;;;;;;;23.35;13.35;;;;;;;2.62;78.25;101315.45;1789200;79;21123;-77
2021/04/15 09:31:17;;;;;;;13.35;6.83;;;;;;;2.68;78.31;101319.00;1780871;79;21187;-77
2021/04/15 09:34:12;;;;;;;7.55;4.00;;;;;;;2.73;78.32;101319.56;1777428;79;21171;-77
2021/04/15 09:37:14;;;;;;;12.82;4.90;;;;;;;2.77;78.37;101318.44;1744669;81;21199;-76
2021/04/15 09:40:08;;;;;;;7.33;2.95;;;;;;;2.76;78.39;101311.47;1775479;79;21167;-77
2021/04/15 09:42:55;;;;;;;6.97;4.30;;;;;;;2.75;78.45;101311.09;1773395;79;21151;-77
2021/04/15 09:45:59;;;;;;;16.57;6.22;;;;;;;2.74;78.49;101322.58;1769323;79;21202;-77
2021/04/15 09:49:04;;;;;;;17.70;6.40;;;;;;;2.73;78.54;101312.98;1766630;81;21159;-77
2021/04/15 09:52:05;;;;;;;13.68;5.95;;;;;;;2.74;78.60;101310.27;1767473;79;21691;-77
2021/04/15 09:55:17;;;;;;;4.50;3.30;;;;;;;2.79;78.64;101313.90;1784367;79;21166;-77
2021/04/15 09:58:27;;;;;;;15.48;5.95;;;;;;;2.76;78.69;101314.10;1685020;83;21220;-76
2021/04/15 10:01:04;;;;;;;16.00;6.15;;;;;;;2.72;78.75;101313.45;1703673;82;21211;-76
2021/04/15 10:04:00;;;;;;;7.08;3.87;;;;;;;2.71;78.79;101315.70;1738556;81;21609;-77
2021/04/15 10:06:51;;;;;;;11.75;4.50;;;;;;;2.73;78.82;101305.08;1729232;81;21168;-77
2021/04/15 10:09:26;;;;;;;21.05;8.25;;;;;;;2.71;78.86;101309.61;1751198;81;21220;-77
2021/04/15 10:12:10;;;;;;;18.90;6.90;;;;;;;2.74;78.88;101309.42;1744908;80;21144;-75
2021/04/15 10:14:46;;;;;;;20.17;7.08;;;;;;;2.79;78.91;101317.85;1736283;81;21613;-76
2021/04/15 10:17:33;;;;;;;7.17;4.00;;;;;;;2.83;78.93;101315.40;1735396;81;21202;-76
2021/04/15 10:20:35;;;;;;;10.28;4.62;;;;;;;2.87;78.93;101309.00;1718772;83;21196;-77
2021/04/15 10:23:40;;;;;;;13.83;4.83;;;;;;;2.83;78.98;101308.81;1660381;83;21251;-77
2021/04/15 10:26:36;;;;;;;17.30;6.45;;;;;;;2.82;79.02;101305.33;1728974;83;21231;-76
2021/04/15 10:29:09;;;;;;;21.48;8.30;;;;;;;2.78;79.02;101308.28;1738445;81;21223;-76
2021/04/15 10:32:00;;;;;;;17.23;6.72;;;;;;;2.78;79.05;101306.97;1752550;81;21199;-76
2021/04/15 10:35:09;;;;;;;18.32;7.35;;;;;;;2.81;79.07;101305.45;1760502;81;21125;-76
2021/04/15 10:37:56;;;;;;;14.05;5.97;;;;;;;2.85;79.10;101301.68;1760177;80;21128;-77
2021/04/15 10:40:42;;;;;;;25.52;10.55;;;;;;;2.85;79.14;101304.31;1760487;81;21163;-77
2021/04/15 10:43:49;;;;;;;45.85;15.48;;;;;;;2.86;79.18;101311.25;1759921;81;21224;-77
2021/04/15 10:46:45;;;;;;;20.88;9.05;;;;;;;2.91;79.23;101311.81;1759576;81;21629;-77
2021/04/15 10:49:29;;;;;;;12.23;5.28;;;;;;;2.95;79.26;101301.45;1760475;81;21124;-77
2021/04/15 10:52:21;;;;;;;7.30;3.60;;;;;;;2.99;79.30;101304.27;1760090;81;21633;-77
2021/04/15 10:54:48;;;;;;;12.07;4.17;;;;;;;2.99;79.32;101305.09;1760472;80;21574;-76
2021/04/15 10:57:27;;;;;;;9.15;3.52;;;;;;;2.97;79.33;101295.60;1755645;81;21200;-76
2021/04/15 10:59:54;;;;;;;15.23;5.75;;;;;;;2.98;79.36;101295.98;1779674;80;21633;-77
2021/04/15 11:02:27;;;;;;;9.75;4.58;;;;;;;2.95;79.41;101289.60;1755588;81;21113;-77
2021/04/15 11:05:19;;;;;;;11.57;5.25;;;;;;;2.95;79.42;101290.45;1779856;80;21151;-77
2021/04/15 11:07:45;;;;;;;22.13;7.90;;;;;;;3.00;79.47;101292.30;1779718;80;21617;-77
2021/04/15 11:10:23;;;;;;;13.53;5.53;;;;;;;3.02;79.55;101298.80;1755920;81;21265;-76
2021/04/15 11:12:49;;;;;;;14.63;5.20;;;;;;;3.00;79.56;101294.08;1786792;80;21139;-77
2021/04/15 11:15:22;;;;;;;14.15;4.85;;;;;;;2.99;79.64;101288.46;1746624;81;21130;-77
2021/04/15 11:17:47;;;;;;;9.30;3.35;;;;;;;2.97;79.65;101290.33;1779021;80;21187;-77
2021/04/15 11:20:23;;;;;;;13.05;5.50;;;;;;;2.96;79.67;101280.27;1788079;80;21101;-77
2021/04/15 11:23:06;;;;;;;18.73;9.55;;;;;;;2.93;79.68;101278.30;1755901;81;22200;-77
2021/04/15 11:25:42;;;;;;;18.05;8.48;;;;;;;2.92;79.68;101287.98;1779554;80;21128;-77
2021/04/15 11:28:26;;;;;;;11.30;5.12;;;;;;;2.92;79.70;101284.53;1755815;81;21554;-77
2021/04/15 11:31:11;;;;;;;7.87;3.17;;;;;;;2.91;79.73;101281.52;1788072;80;21156;-77
2021/04/15 11:33:42;;;;;;;12.47;5.47;;;;;;;2.86;79.74;101283.12;1779406;80;21109;-77
2021/04/15 11:36:26;;;;;;;9.95;4.30;;;;;;;2.83;79.75;101285.11;1787918;80;21577;-76
2021/04/15 11:39:07;;;;;;;10.25;5.22;;;;;;;2.83;79.73;101283.80;1788089;80;21139;-77
2021/04/15 11:41:48;;;;;;;25.32;10.28;;;;;;;2.85;79.71;101277.98;1751772;81;21203;-76
2021/04/15 11:44:34;;;;;;;54.33;18.50;;;;;;;2.90;79.71;101279.82;1788000;80;21175;-76
2021/04/15 11:47:17;;;;;;;19.45;7.65;;;;;;;2.97;79.69;101278.48;1787787;79;21532;-77
2021/04/15 11:49:44;;;;;;;17.45;7.03;;;;;;;2.98;79.67;101276.23;1770392;80;21205;-76
2021/04/15 11:52:24;;;;;;;20.80;10.50;;;;;;;2.98;79.65;101274.91;1755896;81;21191;-76
2021/04/15 11:54:59;;;;;;;24.12;11.12;;;;;;;3.00;79.65;101270.37;1787421;80;21100;-77
2021/04/15 11:57:33;;;;;;;46.02;20.17;;;;;;;2.96;79.68;101271.51;1787780;80;21703;-76
2021/04/15 12:00:05;;;;;;;9.28;4.50;;;;;;;2.85;79.72;101276.66;1788045;80;21175;-76
2021/04/15 12:03:00;;;;;;;11.28;5.05;;;;;;;2.79;79.73;101281.83;1787845;80;22007;-76
2021/04/15 12:05:30;;;;;;;18.42;8.88;;;;;;;2.72;79.76;101280.53;1788078;80;21128;-76
2021/04/15 12:08:14;;;;;;;13.65;6.47;;;;;;;2.64;79.81;101280.67;1755831;81;21175;-76
2021/04/15 12:11:11;;;;;;;8.08;3.98;;;;;;;2.59;79.83;101286.69;1787927;80;21139;-76
2021/04/15 12:13:56;;;;;;;15.13;5.40;;;;;;;2.60;79.82;101264.69;1755869;81;21108;-76
2021/04/15 12:16:43;;;;;;;8.20;4.58;;;;;;;2.63;79.79;101285.55;1779614;80;21207;-76
2021/04/15 12:19:32;;;;;;;18.60;7.65;;;;;;;2.65;79.81;101273.12;1778939;80;21187;-76
2021/04/15 12:22:06;;;;;;;34.07;10.27;;;;;;;2.65;79.84;101281.87;1780080;80;21156;-76
2021/04/15 12:25:08;;;;;;;20.15;6.28;;;;;;;2.66;79.81;101274.35;1779059;80;21223;-76
2021/04/15 12:27:35;;;;;;;9.28;4.92;;;;;;;2.59;79.84;101280.95;1779059;80;21175;-76
2021/04/15 12:30:25;;;;;;;8.45;4.65;;;;;;;2.51;79.86;101276.16;1740886;81;21278;-76
2021/04/15 12:33:07;;;;;;;8.58;4.33;;;;;;;2.45;79.88;101277.87;1788110;80;21152;-76
2021/04/15 12:35:44;;;;;;;16.90;5.83;;;;;;;2.37;79.91;101272.23;1787809;80;21203;-76
2021/04/15 12:38:21;;;;;;;6.10;4.00;;;;;;;2.31;79.93;101272.63;1755573;81;21573;-76
2021/04/15 12:41:01;;;;;;;14.45;6.17;;;;;;;2.27;79.94;101275.08;1788009;80;21533;-76
2021/04/15 12:43:35;;;;;;;8.40;4.92;;;;;;;2.19;79.98;101270.75;1755679;81;21259;-76
2021/04/15 12:46:16;;;;;;;25.23;8.48;;;;;;;2.19;79.97;101274.70;1787977;80;21152;-76
2021/04/15 12:48:51;;;;;;;13.93;4.60;;;;;;;2.25;79.99;101272.17;1788104;80;21136;-76
2021/04/15 12:51:23;;;;;;;11.28;4.97;;;;;;;2.28;79.99;101271.98;1787632;80;21136;-76
2021/04/15 12:53:49;;;;;;;13.30;7.22;;;;;;;2.31;80.00;101267.37;1775265;80;21108;-76
2021/04/15 12:56:23;;;;;;;16.82;8.53;;;;;;;2.34;80.01;101265.00;1787717;80;21190;-76
2021/04/15 12:58:50;;;;;;;18.00;7.83;;;;;;;2.36;80.02;101265.74;1788089;80;21116;-76
2021/04/15 13:01:16;;;;;;;16.97;8.30;;;;;;;2.36;80.06;101262.64;1716386;81;21609;-76
2021/04/15 13:03:45;;;;;;;19.30;8.00;;;;;;;2.35;80.08;101260.98;1787922;80;21521;-76
2021/04/15 13:06:18;;;;;;;17.02;9.85;;;;;;;2.40;80.08;101261.52;1787988;80;21608;-75
2021/04/15 13:08:54;;;;;;;24.92;9.63;;;;;;;2.47;80.11;101264.59;1755516;81;21179;-76
2021/04/15 13:11:29;;;;;;;19.65;7.33;;;;;;;2.52;80.13;101259.91;1788103;80;21140;-76
2021/04/15 13:13:58;;;;;;;9.98;5.15;;;;;;;2.56;80.15;101255.29;1788031;80;21143;-75
2021/04/15 13:16:39;;;;;;;17.10;6.03;;;;;;;2.55;80.17;101254.44;1787285;80;21191;-76
2021/04/15 13:19:27;;;;;;;23.15;10.25;;;;;;;2.53;80.22;101254.52;1755637;81;21827;-76
2021/04/15 13:22:10;;;;;;;21.33;12.05;;;;;;;2.57;80.24;101263.57;1787882;80;22196;-76
2021/04/15 13:24:56;;;;;;;21.17;8.93;;;;;;;2.60;80.23;101259.42;1787664;80;21108;-76
2021/04/15 13:27:38;;;;;;;21.40;10.20;;;;;;;2.66;80.28;101256.39;1788013;80;21109;-75
2021/04/15 13:30:34;;;;;;;13.18;6.40;;;;;;;2.63;80.29;101257.44;1787869;80;21604;-76
2021/04/15 13:33:16;;;;;;;18.95;9.85;;;;;;;2.63;80.30;101246.05;1787850;80;21124;-76
2021/04/15 13:35:56;;;;;;;43.33;19.85;;;;;;;2.53;80.36;101252.39;1787994;79;21204;-76
2021/04/15 13:41:28;;;;;;;59.53;24.10;;;;;;;2.55;80.44;101247.01;1800623;77;28046;-77